sensor_id;sensor_type;location;lat;lon;timestamp;P1;durP1;ratioP1;P2;durP2;ratioP2
84023;SDS011;74109;45.636;25.582;2024-03-22T00:02:15;7.00;;;3.00;;
84023;SDS011;74109;45.636;25.582;2024-03-22T00:04:42;4.20;;;1.70;;
84023;SDS011;74109;45.636;25.582;2024-03-22T00:07:09;7.10;;;2.70;;
84023;SDS011;74109;45.636;25.582;2024-03-22T00:09:35;6.00;;;2.00;;
84023;SDS011;74109;45.636;25.582;2024-03-22T00:12:02;5.30;;;2.00;;
84023;SDS011;74109;45.636;25.582;2024-03-22T00:14:30;7.90;;;2.90;;
84023;SDS011;74109;45.636;25.582;2024-03-22T00:16:59;11.30;;;3.60;;
84023;SDS011;74109;45.636;25.582;2024-03-22T00:19:26;8.90;;;3.20;;
84023;SDS011;74109;45.636;25.582;2024-03-22T00:21:53;5.00;;;2.50;;
84023;SDS011;74109;45.636;25.582;2024-03-22T00:24:19;5.60;;;2.30;;
84023;SDS011;74109;45.636;25.582;2024-03-22T00:26:46;5.20;;;2.00;;
84023;SDS011;74109;45.636;25.582;2024-03-22T00:29:15;7.70;;;3.40;;
84023;SDS011;74109;45.636;25.582;2024-03-22T00:31:41;6.20;;;2.40;;
84023;SDS011;74109;45.636;25.582;2024-03-22T00:34:08;3.20;;;1.20;;
84023;SDS011;74109;45.636;25.582;2024-03-22T00:36:35;5.70;;;2.40;;
84023;SDS011;74109;45.636;25.582;2024-03-22T00:39:02;5.60;;;1.90;;
84023;SDS011;74109;45.636;25.582;2024-03-22T00:41:29;8.90;;;3.80;;
84023;SDS011;74109;45.636;25.582;2024-03-22T00:43:56;8.60;;;3.40;;
84023;SDS011;74109;45.636;25.582;2024-03-22T00:46:25;10.10;;;2.90;;
84023;SDS011;74109;45.636;25.582;2024-03-22T00:48:51;4.50;;;1.70;;
84023;SDS011;74109;45.636;25.582;2024-03-22T00:51:18;6.40;;;1.70;;
84023;SDS011;74109;45.636;25.582;2024-03-22T00:53:45;6.70;;;2.80;;
84023;SDS011;74109;45.636;25.582;2024-03-22T00:56:12;6.80;;;2.50;;
84023;SDS011;74109;45.636;25.582;2024-03-22T00:58:39;6.00;;;2.40;;
84023;SDS011;74109;45.636;25.582;2024-03-22T01:01:05;6.20;;;2.40;;
84023;SDS011;74109;45.636;25.582;2024-03-22T01:03:32;5.30;;;1.60;;
84023;SDS011;74109;45.636;25.582;2024-03-22T01:05:59;13.60;;;4.40;;
84023;SDS011;74109;45.636;25.582;2024-03-22T01:08:26;11.70;;;4.20;;
84023;SDS011;74109;45.636;25.582;2024-03-22T01:10:54;10.50;;;3.90;;
84023;SDS011;74109;45.636;25.582;2024-03-22T01:13:21;7.20;;;2.80;;
84023;SDS011;74109;45.636;25.582;2024-03-22T01:15:48;9.00;;;3.70;;
84023;SDS011;74109;45.636;25.582;2024-03-22T01:18:15;7.90;;;3.70;;
84023;SDS011;74109;45.636;25.582;2024-03-22T01:20:42;7.80;;;1.90;;
84023;SDS011;74109;45.636;25.582;2024-03-22T01:23:09;6.70;;;2.20;;
84023;SDS011;74109;45.636;25.582;2024-03-22T01:25:36;6.00;;;2.50;;
84023;SDS011;74109;45.636;25.582;2024-03-22T01:28:03;5.50;;;2.40;;
84023;SDS011;74109;45.636;25.582;2024-03-22T01:30:30;9.70;;;3.10;;
84023;SDS011;74109;45.636;25.582;2024-03-22T01:32:57;9.90;;;3.80;;
84023;SDS011;74109;45.636;25.582;2024-03-22T01:35:24;10.20;;;4.40;;
84023;SDS011;74109;45.636;25.582;2024-03-22T01:37:51;4.10;;;1.90;;
84023;SDS011;74109;45.636;25.582;2024-03-22T01:40:18;5.40;;;2.20;;
84023;SDS011;74109;45.636;25.582;2024-03-22T01:42:45;6.60;;;2.70;;
84023;SDS011;74109;45.636;25.582;2024-03-22T01:45:13;6.80;;;3.00;;
84023;SDS011;74109;45.636;25.582;2024-03-22T01:47:41;7.00;;;2.80;;
84023;SDS011;74109;45.636;25.582;2024-03-22T01:50:09;9.50;;;3.30;;
84023;SDS011;74109;45.636;25.582;2024-03-22T01:52:38;6.80;;;2.90;;
84023;SDS011;74109;45.636;25.582;2024-03-22T01:55:09;4.70;;;1.70;;
84023;SDS011;74109;45.636;25.582;2024-03-22T01:57:36;7.70;;;3.40;;
84023;SDS011;74109;45.636;25.582;2024-03-22T02:00:06;7.60;;;2.50;;
84023;SDS011;74109;45.636;25.582;2024-03-22T02:02:39;6.70;;;3.00;;
84023;SDS011;74109;45.636;25.582;2024-03-22T02:05:13;5.00;;;1.90;;
84023;SDS011;74109;45.636;25.582;2024-03-22T02:07:42;5.90;;;2.30;;
84023;SDS011;74109;45.636;25.582;2024-03-22T02:10:09;10.90;;;3.90;;
84023;SDS011;74109;45.636;25.582;2024-03-22T02:12:39;5.00;;;2.50;;
84023;SDS011;74109;45.636;25.582;2024-03-22T02:15:07;5.20;;;2.50;;
84023;SDS011;74109;45.636;25.582;2024-03-22T02:17:35;4.00;;;1.70;;
84023;SDS011;74109;45.636;25.582;2024-03-22T02:20:02;6.70;;;2.40;;
84023;SDS011;74109;45.636;25.582;2024-03-22T02:22:32;8.90;;;3.10;;
84023;SDS011;74109;45.636;25.582;2024-03-22T02:25:00;8.00;;;2.80;;
84023;SDS011;74109;45.636;25.582;2024-03-22T02:27:27;5.70;;;1.70;;
84023;SDS011;74109;45.636;25.582;2024-03-22T02:29:54;5.80;;;2.00;;
84023;SDS011;74109;45.636;25.582;2024-03-22T02:32:21;5.50;;;2.60;;
84023;SDS011;74109;45.636;25.582;2024-03-22T02:34:48;8.10;;;2.50;;
84023;SDS011;74109;45.636;25.582;2024-03-22T02:37:27;6.70;;;2.50;;
84023;SDS011;74109;45.636;25.582;2024-03-22T02:39:54;5.50;;;2.20;;
84023;SDS011;74109;45.636;25.582;2024-03-22T02:42:21;3.90;;;1.40;;
84023;SDS011;74109;45.636;25.582;2024-03-22T02:44:48;10.30;;;3.50;;
84023;SDS011;74109;45.636;25.582;2024-03-22T02:47:15;11.70;;;3.80;;
84023;SDS011;74109;45.636;25.582;2024-03-22T02:49:42;5.80;;;2.30;;
84023;SDS011;74109;45.636;25.582;2024-03-22T02:52:09;4.60;;;1.50;;
84023;SDS011;74109;45.636;25.582;2024-03-22T02:54:36;6.90;;;2.70;;
84023;SDS011;74109;45.636;25.582;2024-03-22T02:57:03;7.30;;;2.90;;
84023;SDS011;74109;45.636;25.582;2024-03-22T02:59:30;4.60;;;1.40;;
84023;SDS011;74109;45.636;25.582;2024-03-22T03:01:57;4.20;;;1.50;;
84023;SDS011;74109;45.636;25.582;2024-03-22T03:04:24;10.10;;;3.70;;
84023;SDS011;74109;45.636;25.582;2024-03-22T03:06:50;9.00;;;3.50;;
84023;SDS011;74109;45.636;25.582;2024-03-22T03:09:17;6.00;;;2.80;;
84023;SDS011;74109;45.636;25.582;2024-03-22T03:11:44;5.40;;;2.40;;
84023;SDS011;74109;45.636;25.582;2024-03-22T03:14:11;6.50;;;2.30;;
84023;SDS011;74109;45.636;25.582;2024-03-22T03:16:37;8.80;;;3.40;;
84023;SDS011;74109;45.636;25.582;2024-03-22T03:19:06;5.40;;;2.40;;
84023;SDS011;74109;45.636;25.582;2024-03-22T03:21:33;6.30;;;2.40;;
84023;SDS011;74109;45.636;25.582;2024-03-22T03:24:00;5.80;;;2.60;;
84023;SDS011;74109;45.636;25.582;2024-03-22T03:26:27;10.70;;;3.50;;
84023;SDS011;74109;45.636;25.582;2024-03-22T03:28:53;10.70;;;3.80;;
84023;SDS011;74109;45.636;25.582;2024-03-22T03:31:22;6.10;;;2.30;;
84023;SDS011;74109;45.636;25.582;2024-03-22T03:33:49;4.50;;;1.60;;
84023;SDS011;74109;45.636;25.582;2024-03-22T03:36:15;9.40;;;3.40;;
84023;SDS011;74109;45.636;25.582;2024-03-22T03:38:42;5.90;;;2.70;;
84023;SDS011;74109;45.636;25.582;2024-03-22T03:41:09;6.50;;;2.40;;
84023;SDS011;74109;45.636;25.582;2024-03-22T03:43:36;5.80;;;2.50;;
84023;SDS011;74109;45.636;25.582;2024-03-22T03:46:03;5.90;;;2.50;;
84023;SDS011;74109;45.636;25.582;2024-03-22T03:48:30;5.70;;;3.10;;
84023;SDS011;74109;45.636;25.582;2024-03-22T03:50:56;8.60;;;3.30;;
84023;SDS011;74109;45.636;25.582;2024-03-22T03:53:29;5.40;;;2.30;;
84023;SDS011;74109;45.636;25.582;2024-03-22T03:55:56;7.00;;;2.60;;
84023;SDS011;74109;45.636;25.582;2024-03-22T03:58:23;6.70;;;2.90;;
84023;SDS011;74109;45.636;25.582;2024-03-22T04:00:50;6.60;;;2.40;;
84023;SDS011;74109;45.636;25.582;2024-03-22T04:03:17;9.00;;;3.20;;
84023;SDS011;74109;45.636;25.582;2024-03-22T04:05:44;6.20;;;2.50;;
84023;SDS011;74109;45.636;25.582;2024-03-22T04:08:10;4.90;;;1.50;;
84023;SDS011;74109;45.636;25.582;2024-03-22T04:10:37;6.80;;;2.20;;
84023;SDS011;74109;45.636;25.582;2024-03-22T04:13:04;8.50;;;3.50;;
84023;SDS011;74109;45.636;25.582;2024-03-22T04:15:33;8.10;;;3.60;;
84023;SDS011;74109;45.636;25.582;2024-03-22T04:18:01;9.90;;;3.40;;
84023;SDS011;74109;45.636;25.582;2024-03-22T04:20:28;9.10;;;3.10;;
84023;SDS011;74109;45.636;25.582;2024-03-22T04:22:55;5.60;;;1.70;;
84023;SDS011;74109;45.636;25.582;2024-03-22T04:25:22;8.10;;;3.10;;
84023;SDS011;74109;45.636;25.582;2024-03-22T04:27:49;6.00;;;2.40;;
84023;SDS011;74109;45.636;25.582;2024-03-22T04:30:16;8.50;;;2.90;;
84023;SDS011;74109;45.636;25.582;2024-03-22T04:32:45;9.30;;;3.30;;
84023;SDS011;74109;45.636;25.582;2024-03-22T04:35:13;10.80;;;4.00;;
84023;SDS011;74109;45.636;25.582;2024-03-22T04:37:40;3.40;;;1.40;;
84023;SDS011;74109;45.636;25.582;2024-03-22T04:40:07;7.40;;;2.40;;
84023;SDS011;74109;45.636;25.582;2024-03-22T04:42:36;9.00;;;3.90;;
84023;SDS011;74109;45.636;25.582;2024-03-22T04:45:03;8.00;;;3.00;;
84023;SDS011;74109;45.636;25.582;2024-03-22T04:47:30;11.10;;;3.10;;
84023;SDS011;74109;45.636;25.582;2024-03-22T04:49:57;6.90;;;3.10;;
84023;SDS011;74109;45.636;25.582;2024-03-22T04:52:24;7.60;;;3.10;;
84023;SDS011;74109;45.636;25.582;2024-03-22T04:54:51;8.40;;;3.50;;
84023;SDS011;74109;45.636;25.582;2024-03-22T04:57:18;8.10;;;2.80;;
84023;SDS011;74109;45.636;25.582;2024-03-22T04:59:44;9.90;;;3.70;;
84023;SDS011;74109;45.636;25.582;2024-03-22T05:02:11;8.70;;;3.30;;
84023;SDS011;74109;45.636;25.582;2024-03-22T05:04:38;9.50;;;4.10;;
84023;SDS011;74109;45.636;25.582;2024-03-22T05:07:05;8.50;;;3.40;;
84023;SDS011;74109;45.636;25.582;2024-03-22T05:09:32;8.40;;;4.10;;
84023;SDS011;74109;45.636;25.582;2024-03-22T05:11:59;11.50;;;4.60;;
84023;SDS011;74109;45.636;25.582;2024-03-22T05:14:26;9.50;;;4.00;;
84023;SDS011;74109;45.636;25.582;2024-03-22T05:16:53;10.30;;;4.30;;
84023;SDS011;74109;45.636;25.582;2024-03-22T05:19:21;6.40;;;3.00;;
84023;SDS011;74109;45.636;25.582;2024-03-22T05:21:48;7.20;;;3.00;;
84023;SDS011;74109;45.636;25.582;2024-03-22T05:24:15;6.70;;;2.50;;
84023;SDS011;74109;45.636;25.582;2024-03-22T05:26:42;9.60;;;3.90;;
84023;SDS011;74109;45.636;25.582;2024-03-22T05:29:11;10.30;;;4.10;;
84023;SDS011;74109;45.636;25.582;2024-03-22T05:31:45;12.90;;;5.20;;
84023;SDS011;74109;45.636;25.582;2024-03-22T05:34:15;14.10;;;5.50;;
84023;SDS011;74109;45.636;25.582;2024-03-22T05:36:44;14.90;;;5.70;;
84023;SDS011;74109;45.636;25.582;2024-03-22T05:39:18;15.30;;;5.50;;
84023;SDS011;74109;45.636;25.582;2024-03-22T05:41:46;11.00;;;5.20;;
84023;SDS011;74109;45.636;25.582;2024-03-22T05:44:13;9.30;;;3.90;;
84023;SDS011;74109;45.636;25.582;2024-03-22T05:46:46;13.50;;;5.60;;
84023;SDS011;74109;45.636;25.582;2024-03-22T05:49:13;14.80;;;5.60;;
84023;SDS011;74109;45.636;25.582;2024-03-22T05:51:44;26.00;;;9.90;;
84023;SDS011;74109;45.636;25.582;2024-03-22T05:54:13;41.30;;;15.20;;
84023;SDS011;74109;45.636;25.582;2024-03-22T05:56:48;43.40;;;10.80;;
84023;SDS011;74109;45.636;25.582;2024-03-22T05:59:21;36.80;;;9.10;;
84023;SDS011;74109;45.636;25.582;2024-03-22T06:02:24;29.80;;;9.30;;
84023;SDS011;74109;45.636;25.582;2024-03-22T06:05:07;31.00;;;9.10;;
84023;SDS011;74109;45.636;25.582;2024-03-22T06:07:54;27.90;;;9.90;;
84023;SDS011;74109;45.636;25.582;2024-03-22T06:11:22;28.70;;;8.50;;
84023;SDS011;74109;45.636;25.582;2024-03-22T06:14:51;19.90;;;6.80;;
84023;SDS011;74109;45.636;25.582;2024-03-22T06:17:54;11.30;;;4.30;;
84023;SDS011;74109;45.636;25.582;2024-03-22T06:29:08;16.40;;;7.60;;
84023;SDS011;74109;45.636;25.582;2024-03-22T06:32:33;13.40;;;6.40;;
84023;SDS011;74109;45.636;25.582;2024-03-22T06:35:33;11.70;;;6.60;;
84023;SDS011;74109;45.636;25.582;2024-03-22T06:38:30;12.20;;;6.80;;
84023;SDS011;74109;45.636;25.582;2024-03-22T06:45:02;17.00;;;7.20;;
84023;SDS011;74109;45.636;25.582;2024-03-22T06:47:43;16.70;;;7.50;;
84023;SDS011;74109;45.636;25.582;2024-03-22T06:50:20;10.90;;;6.00;;
84023;SDS011;74109;45.636;25.582;2024-03-22T06:52:56;10.40;;;5.80;;
84023;SDS011;74109;45.636;25.582;2024-03-22T06:55:38;12.30;;;6.50;;
84023;SDS011;74109;45.636;25.582;2024-03-22T06:59:39;11.40;;;6.50;;
84023;SDS011;74109;45.636;25.582;2024-03-22T07:03:17;23.90;;;19.40;;
84023;SDS011;74109;45.636;25.582;2024-03-22T07:06:19;10.30;;;7.00;;
84023;SDS011;74109;45.636;25.582;2024-03-22T07:14:07;21.90;;;11.70;;
84023;SDS011;74109;45.636;25.582;2024-03-22T07:17:08;23.00;;;13.00;;
84023;SDS011;74109;45.636;25.582;2024-03-22T07:20:31;29.60;;;15.30;;
84023;SDS011;74109;45.636;25.582;2024-03-22T07:23:41;14.50;;;7.90;;
84023;SDS011;74109;45.636;25.582;2024-03-22T07:27:04;16.20;;;8.50;;
84023;SDS011;74109;45.636;25.582;2024-03-22T07:33:05;20.40;;;11.20;;
84023;SDS011;74109;45.636;25.582;2024-03-22T07:36:00;15.50;;;10.20;;
84023;SDS011;74109;45.636;25.582;2024-03-22T08:15:38;9.40;;;5.70;;
84023;SDS011;74109;45.636;25.582;2024-03-22T08:18:46;11.80;;;7.20;;
84023;SDS011;74109;45.636;25.582;2024-03-22T08:21:23;10.60;;;5.50;;
84023;SDS011;74109;45.636;25.582;2024-03-22T08:23:59;10.60;;;5.30;;
84023;SDS011;74109;45.636;25.582;2024-03-22T08:26:27;11.40;;;5.60;;
84023;SDS011;74109;45.636;25.582;2024-03-22T08:29:05;10.60;;;6.70;;
84023;SDS011;74109;45.636;25.582;2024-03-22T08:31:43;11.60;;;6.30;;
84023;SDS011;74109;45.636;25.582;2024-03-22T08:34:32;17.80;;;9.10;;
84023;SDS011;74109;45.636;25.582;2024-03-22T08:37:39;12.80;;;8.00;;
84023;SDS011;74109;45.636;25.582;2024-03-22T08:40:12;17.20;;;10.10;;
84023;SDS011;74109;45.636;25.582;2024-03-22T08:42:47;12.30;;;6.30;;
84023;SDS011;74109;45.636;25.582;2024-03-22T08:45:21;8.30;;;5.10;;
84023;SDS011;74109;45.636;25.582;2024-03-22T08:47:58;10.40;;;5.00;;
84023;SDS011;74109;45.636;25.582;2024-03-22T08:50:43;7.00;;;4.20;;
84023;SDS011;74109;45.636;25.582;2024-03-22T08:53:23;8.60;;;4.60;;
84023;SDS011;74109;45.636;25.582;2024-03-22T08:56:17;8.90;;;5.90;;
84023;SDS011;74109;45.636;25.582;2024-03-22T08:59:09;6.90;;;4.50;;
84023;SDS011;74109;45.636;25.582;2024-03-22T09:07:17;7.30;;;4.30;;
84023;SDS011;74109;45.636;25.582;2024-03-22T09:10:29;11.10;;;5.00;;
84023;SDS011;74109;45.636;25.582;2024-03-22T09:16:40;7.30;;;4.20;;
84023;SDS011;74109;45.636;25.582;2024-03-22T09:19:42;5.30;;;2.90;;
84023;SDS011;74109;45.636;25.582;2024-03-22T09:22:57;7.40;;;4.60;;
84023;SDS011;74109;45.636;25.582;2024-03-22T09:29:28;8.00;;;3.60;;
84023;SDS011;74109;45.636;25.582;2024-03-22T09:32:19;7.10;;;3.80;;
84023;SDS011;74109;45.636;25.582;2024-03-22T09:38:45;4.40;;;2.80;;
84023;SDS011;74109;45.636;25.582;2024-03-22T09:41:50;6.90;;;3.50;;
84023;SDS011;74109;45.636;25.582;2024-03-22T09:45:28;5.30;;;2.40;;
84023;SDS011;74109;45.636;25.582;2024-03-22T09:48:34;4.00;;;2.30;;
84023;SDS011;74109;45.636;25.582;2024-03-22T10:03:58;5.00;;;2.90;;
84023;SDS011;74109;45.636;25.582;2024-03-22T10:07:57;5.40;;;2.30;;
84023;SDS011;74109;45.636;25.582;2024-03-22T10:10:39;6.80;;;3.70;;
84023;SDS011;74109;45.636;25.582;2024-03-22T10:13:44;4.60;;;2.20;;
84023;SDS011;74109;45.636;25.582;2024-03-22T10:16:37;5.60;;;2.50;;
84023;SDS011;74109;45.636;25.582;2024-03-22T10:19:13;5.00;;;2.20;;
84023;SDS011;74109;45.636;25.582;2024-03-22T10:22:03;8.10;;;2.20;;
84023;SDS011;74109;45.636;25.582;2024-03-22T10:24:42;5.50;;;3.00;;
84023;SDS011;74109;45.636;25.582;2024-03-22T10:29:44;6.00;;;2.50;;
84023;SDS011;74109;45.636;25.582;2024-03-22T10:32:25;5.40;;;3.30;;
84023;SDS011;74109;45.636;25.582;2024-03-22T10:34:55;4.80;;;3.00;;
84023;SDS011;74109;45.636;25.582;2024-03-22T10:37:31;4.90;;;2.10;;
84023;SDS011;74109;45.636;25.582;2024-03-22T10:40:04;5.20;;;2.00;;
84023;SDS011;74109;45.636;25.582;2024-03-22T10:43:28;4.40;;;2.40;;
84023;SDS011;74109;45.636;25.582;2024-03-22T10:46:29;5.40;;;3.10;;
84023;SDS011;74109;45.636;25.582;2024-03-22T10:49:06;6.20;;;3.30;;
84023;SDS011;74109;45.636;25.582;2024-03-22T10:51:59;4.50;;;2.60;;
84023;SDS011;74109;45.636;25.582;2024-03-22T10:54:46;6.70;;;3.50;;
84023;SDS011;74109;45.636;25.582;2024-03-22T10:57:15;4.80;;;2.30;;
84023;SDS011;74109;45.636;25.582;2024-03-22T10:59:46;7.90;;;3.20;;
84023;SDS011;74109;45.636;25.582;2024-03-22T11:02:14;4.70;;;2.30;;
84023;SDS011;74109;45.636;25.582;2024-03-22T11:07:30;3.90;;;1.30;;
84023;SDS011;74109;45.636;25.582;2024-03-22T11:09:58;6.00;;;2.50;;
84023;SDS011;74109;45.636;25.582;2024-03-22T11:12:27;5.60;;;2.60;;
84023;SDS011;74109;45.636;25.582;2024-03-22T11:14:57;5.70;;;2.90;;
84023;SDS011;74109;45.636;25.582;2024-03-22T11:17:27;5.60;;;3.10;;
84023;SDS011;74109;45.636;25.582;2024-03-22T11:19:57;5.80;;;2.90;;
84023;SDS011;74109;45.636;25.582;2024-03-22T11:22:31;5.90;;;3.10;;
84023;SDS011;74109;45.636;25.582;2024-03-22T11:25:00;4.80;;;2.40;;
84023;SDS011;74109;45.636;25.582;2024-03-22T11:27:32;5.00;;;2.30;;
84023;SDS011;74109;45.636;25.582;2024-03-22T11:30:06;4.60;;;2.00;;
84023;SDS011;74109;45.636;25.582;2024-03-22T11:32:37;5.20;;;2.20;;
84023;SDS011;74109;45.636;25.582;2024-03-22T11:35:12;8.20;;;2.60;;
84023;SDS011;74109;45.636;25.582;2024-03-22T11:37:41;4.70;;;2.00;;
84023;SDS011;74109;45.636;25.582;2024-03-22T11:40:13;5.90;;;2.70;;
84023;SDS011;74109;45.636;25.582;2024-03-22T11:42:41;4.90;;;2.20;;
84023;SDS011;74109;45.636;25.582;2024-03-22T11:45:14;3.70;;;1.90;;
84023;SDS011;74109;45.636;25.582;2024-03-22T11:47:43;4.50;;;2.60;;
84023;SDS011;74109;45.636;25.582;2024-03-22T11:50:12;4.80;;;2.50;;
84023;SDS011;74109;45.636;25.582;2024-03-22T11:52:42;4.10;;;2.00;;
84023;SDS011;74109;45.636;25.582;2024-03-22T11:55:19;4.00;;;1.70;;
84023;SDS011;74109;45.636;25.582;2024-03-22T11:57:49;5.70;;;1.90;;
84023;SDS011;74109;45.636;25.582;2024-03-22T12:00:17;5.70;;;2.60;;
84023;SDS011;74109;45.636;25.582;2024-03-22T12:03:07;8.10;;;4.30;;
84023;SDS011;74109;45.636;25.582;2024-03-22T12:05:37;6.50;;;3.20;;
84023;SDS011;74109;45.636;25.582;2024-03-22T12:08:04;3.60;;;2.00;;
84023;SDS011;74109;45.636;25.582;2024-03-22T12:10:32;4.00;;;1.80;;
84023;SDS011;74109;45.636;25.582;2024-03-22T12:12:59;5.80;;;2.60;;
84023;SDS011;74109;45.636;25.582;2024-03-22T12:15:28;5.30;;;2.60;;
84023;SDS011;74109;45.636;25.582;2024-03-22T12:17:55;4.70;;;2.00;;
84023;SDS011;74109;45.636;25.582;2024-03-22T12:20:22;6.00;;;2.50;;
84023;SDS011;74109;45.636;25.582;2024-03-22T12:22:49;8.30;;;3.50;;
84023;SDS011;74109;45.636;25.582;2024-03-22T12:25:16;5.20;;;2.40;;
84023;SDS011;74109;45.636;25.582;2024-03-22T12:27:43;3.50;;;2.00;;
84023;SDS011;74109;45.636;25.582;2024-03-22T12:30:11;4.60;;;2.10;;
84023;SDS011;74109;45.636;25.582;2024-03-22T12:32:40;5.00;;;2.30;;
84023;SDS011;74109;45.636;25.582;2024-03-22T12:35:10;8.40;;;3.10;;
84023;SDS011;74109;45.636;25.582;2024-03-22T12:37:37;5.70;;;2.90;;
84023;SDS011;74109;45.636;25.582;2024-03-22T12:40:05;7.60;;;2.40;;
84023;SDS011;74109;45.636;25.582;2024-03-22T12:42:36;6.20;;;2.90;;
84023;SDS011;74109;45.636;25.582;2024-03-22T12:45:03;6.60;;;2.20;;
84023;SDS011;74109;45.636;25.582;2024-03-22T12:47:30;5.30;;;2.60;;
84023;SDS011;74109;45.636;25.582;2024-03-22T12:49:58;4.50;;;2.60;;
84023;SDS011;74109;45.636;25.582;2024-03-22T12:52:25;6.70;;;2.40;;
84023;SDS011;74109;45.636;25.582;2024-03-22T12:54:52;6.10;;;3.10;;
84023;SDS011;74109;45.636;25.582;2024-03-22T12:57:20;4.50;;;2.30;;
84023;SDS011;74109;45.636;25.582;2024-03-22T12:59:47;5.50;;;2.30;;
84023;SDS011;74109;45.636;25.582;2024-03-22T13:02:14;5.70;;;2.30;;
84023;SDS011;74109;45.636;25.582;2024-03-22T13:04:42;3.70;;;2.20;;
84023;SDS011;74109;45.636;25.582;2024-03-22T13:07:09;4.60;;;2.50;;
84023;SDS011;74109;45.636;25.582;2024-03-22T13:09:37;4.30;;;2.10;;
84023;SDS011;74109;45.636;25.582;2024-03-22T13:12:03;4.60;;;2.00;;
84023;SDS011;74109;45.636;25.582;2024-03-22T13:14:33;4.60;;;2.50;;
84023;SDS011;74109;45.636;25.582;2024-03-22T13:17:01;5.60;;;3.30;;
84023;SDS011;74109;45.636;25.582;2024-03-22T13:19:28;4.50;;;2.00;;
84023;SDS011;74109;45.636;25.582;2024-03-22T13:21:56;3.90;;;1.90;;
84023;SDS011;74109;45.636;25.582;2024-03-22T13:24:23;4.90;;;2.50;;
84023;SDS011;74109;45.636;25.582;2024-03-22T13:26:51;5.90;;;2.40;;
84023;SDS011;74109;45.636;25.582;2024-03-22T13:29:18;5.90;;;2.90;;
84023;SDS011;74109;45.636;25.582;2024-03-22T13:31:45;7.00;;;3.90;;
84023;SDS011;74109;45.636;25.582;2024-03-22T13:34:17;5.50;;;2.60;;
84023;SDS011;74109;45.636;25.582;2024-03-22T13:36:46;5.30;;;2.90;;
84023;SDS011;74109;45.636;25.582;2024-03-22T13:39:13;6.70;;;2.50;;
84023;SDS011;74109;45.636;25.582;2024-03-22T13:41:42;5.70;;;2.20;;
84023;SDS011;74109;45.636;25.582;2024-03-22T13:44:09;5.80;;;2.60;;
84023;SDS011;74109;45.636;25.582;2024-03-22T13:46:36;6.00;;;3.30;;
84023;SDS011;74109;45.636;25.582;2024-03-22T13:49:03;4.50;;;2.10;;
84023;SDS011;74109;45.636;25.582;2024-03-22T13:51:31;4.90;;;2.30;;
84023;SDS011;74109;45.636;25.582;2024-03-22T13:53:58;3.80;;;1.60;;
84023;SDS011;74109;45.636;25.582;2024-03-22T13:56:25;6.80;;;2.70;;
84023;SDS011;74109;45.636;25.582;2024-03-22T13:58:52;4.80;;;2.30;;
84023;SDS011;74109;45.636;25.582;2024-03-22T14:01:19;5.00;;;2.50;;
84023;SDS011;74109;45.636;25.582;2024-03-22T14:03:46;4.30;;;1.80;;
84023;SDS011;74109;45.636;25.582;2024-03-22T14:06:14;5.30;;;2.40;;
84023;SDS011;74109;45.636;25.582;2024-03-22T14:08:41;6.10;;;2.10;;
84023;SDS011;74109;45.636;25.582;2024-03-22T14:11:08;5.30;;;2.40;;
84023;SDS011;74109;45.636;25.582;2024-03-22T14:13:35;6.00;;;2.80;;
84023;SDS011;74109;45.636;25.582;2024-03-22T14:16:02;4.20;;;2.30;;
84023;SDS011;74109;45.636;25.582;2024-03-22T14:18:29;4.90;;;2.70;;
84023;SDS011;74109;45.636;25.582;2024-03-22T14:20:56;4.60;;;2.30;;
84023;SDS011;74109;45.636;25.582;2024-03-22T14:23:23;4.50;;;2.10;;
84023;SDS011;74109;45.636;25.582;2024-03-22T14:25:50;3.80;;;1.60;;
84023;SDS011;74109;45.636;25.582;2024-03-22T14:28:17;4.20;;;2.20;;
84023;SDS011;74109;45.636;25.582;2024-03-22T14:30:44;6.90;;;3.10;;
84023;SDS011;74109;45.636;25.582;2024-03-22T14:33:11;4.80;;;2.00;;
84023;SDS011;74109;45.636;25.582;2024-03-22T14:35:38;5.60;;;3.00;;
84023;SDS011;74109;45.636;25.582;2024-03-22T14:38:05;4.80;;;2.20;;
84023;SDS011;74109;45.636;25.582;2024-03-22T14:40:32;4.80;;;1.90;;
84023;SDS011;74109;45.636;25.582;2024-03-22T14:43:03;4.10;;;2.40;;
84023;SDS011;74109;45.636;25.582;2024-03-22T14:45:31;4.80;;;2.90;;
84023;SDS011;74109;45.636;25.582;2024-03-22T14:47:58;4.00;;;2.40;;
84023;SDS011;74109;45.636;25.582;2024-03-22T14:50:24;5.20;;;2.30;;
84023;SDS011;74109;45.636;25.582;2024-03-22T14:52:52;7.50;;;2.80;;
84023;SDS011;74109;45.636;25.582;2024-03-22T14:55:19;6.00;;;2.70;;
84023;SDS011;74109;45.636;25.582;2024-03-22T14:57:46;4.80;;;2.30;;
84023;SDS011;74109;45.636;25.582;2024-03-22T15:00:13;4.30;;;2.30;;
84023;SDS011;74109;45.636;25.582;2024-03-22T15:02:41;3.90;;;2.00;;
84023;SDS011;74109;45.636;25.582;2024-03-22T15:05:08;5.90;;;2.20;;
84023;SDS011;74109;45.636;25.582;2024-03-22T15:07:35;4.20;;;2.20;;
84023;SDS011;74109;45.636;25.582;2024-03-22T15:10:02;4.40;;;2.20;;
84023;SDS011;74109;45.636;25.582;2024-03-22T15:12:30;5.70;;;2.10;;
84023;SDS011;74109;45.636;25.582;2024-03-22T15:14:57;3.30;;;1.70;;
84023;SDS011;74109;45.636;25.582;2024-03-22T15:17:26;3.80;;;1.80;;
84023;SDS011;74109;45.636;25.582;2024-03-22T15:19:53;4.00;;;1.80;;
84023;SDS011;74109;45.636;25.582;2024-03-22T15:22:19;6.80;;;2.20;;
84023;SDS011;74109;45.636;25.582;2024-03-22T15:24:46;5.90;;;2.70;;
84023;SDS011;74109;45.636;25.582;2024-03-22T15:27:14;13.80;;;6.20;;
84023;SDS011;74109;45.636;25.582;2024-03-22T15:29:41;15.00;;;5.60;;
84023;SDS011;74109;45.636;25.582;2024-03-22T15:32:08;11.50;;;5.00;;
84023;SDS011;74109;45.636;25.582;2024-03-22T15:34:35;9.30;;;3.80;;
84023;SDS011;74109;45.636;25.582;2024-03-22T15:37:03;8.80;;;4.10;;
84023;SDS011;74109;45.636;25.582;2024-03-22T15:39:30;8.50;;;2.80;;
84023;SDS011;74109;45.636;25.582;2024-03-22T15:41:57;6.70;;;2.80;;
84023;SDS011;74109;45.636;25.582;2024-03-22T15:44:24;5.20;;;2.30;;
84023;SDS011;74109;45.636;25.582;2024-03-22T15:46:52;7.00;;;2.90;;
84023;SDS011;74109;45.636;25.582;2024-03-22T15:49:20;4.90;;;2.40;;
84023;SDS011;74109;45.636;25.582;2024-03-22T15:51:47;5.40;;;2.30;;
84023;SDS011;74109;45.636;25.582;2024-03-22T15:54:15;5.30;;;2.90;;
84023;SDS011;74109;45.636;25.582;2024-03-22T15:56:42;6.10;;;2.60;;
84023;SDS011;74109;45.636;25.582;2024-03-22T15:59:08;5.50;;;2.80;;
84023;SDS011;74109;45.636;25.582;2024-03-22T16:01:35;12.10;;;3.40;;
84023;SDS011;74109;45.636;25.582;2024-03-22T16:04:02;7.20;;;3.00;;
84023;SDS011;74109;45.636;25.582;2024-03-22T16:06:30;5.10;;;2.50;;
84023;SDS011;74109;45.636;25.582;2024-03-22T16:08:57;7.80;;;3.10;;
84023;SDS011;74109;45.636;25.582;2024-03-22T16:11:24;5.90;;;2.70;;
84023;SDS011;74109;45.636;25.582;2024-03-22T16:13:50;4.90;;;2.30;;
84023;SDS011;74109;45.636;25.582;2024-03-22T16:16:17;6.10;;;2.70;;
84023;SDS011;74109;45.636;25.582;2024-03-22T16:18:44;7.50;;;2.40;;
84023;SDS011;74109;45.636;25.582;2024-03-22T16:21:11;5.10;;;2.10;;
84023;SDS011;74109;45.636;25.582;2024-03-22T16:23:38;7.50;;;3.20;;
84023;SDS011;74109;45.636;25.582;2024-03-22T16:26:04;10.60;;;4.20;;
84023;SDS011;74109;45.636;25.582;2024-03-22T16:28:31;12.10;;;4.60;;
84023;SDS011;74109;45.636;25.582;2024-03-22T16:30:58;12.10;;;5.20;;
84023;SDS011;74109;45.636;25.582;2024-03-22T16:33:25;9.60;;;4.10;;
84023;SDS011;74109;45.636;25.582;2024-03-22T16:35:52;10.40;;;3.90;;
84023;SDS011;74109;45.636;25.582;2024-03-22T16:38:19;6.80;;;3.10;;